TimeEDT,TemperatureF,Dew PointF,Humidity,Sea Level PressureIn,VisibilityMPH,Wind Direction,Wind SpeedMPH,Gust SpeedMPH,PrecipitationIn,Events,Conditions,WindDirDegrees,DateUTC
12:14 AM,57.4,44.6,62,30.03,10.0,SE,6.9,-,N/A,,Clear,130,2013-10-12 04:14:00
12:34 AM,57.2,44.6,63,30.02,10.0,SE,5.8,-,N/A,,Clear,140,2013-10-12 04:34:00
12:54 AM,57.4,44.6,62,30.02,10.0,SE,5.8,-,N/A,,Clear,130,2013-10-12 04:54:00
1:14 AM,57.9,44.6,61,30.02,10.0,SE,4.6,-,N/A,,Clear,130,2013-10-12 05:14:00
1:34 AM,57.9,44.6,61,30.01,10.0,SE,5.8,-,N/A,,Clear,130,2013-10-12 05:34:00
1:54 AM,58.1,45.1,62,30.01,10.0,SE,4.6,-,N/A,,Clear,130,2013-10-12 05:54:00
2:14 AM,58.3,45.7,63,30.01,10.0,SE,5.8,-,N/A,,Clear,140,2013-10-12 06:14:00
2:34 AM,58.3,46.4,65,30.01,10.0,SE,8.1,-,N/A,,Clear,140,2013-10-12 06:34:00
2:54 AM,59.0,47.7,66,30.01,10.0,SE,8.1,-,N/A,,Clear,140,2013-10-12 06:54:00
3:14 AM,59.2,48.0,66,30.01,10.0,SE,10.4,-,N/A,,Clear,140,2013-10-12 07:14:00
3:35 AM,59.4,48.2,67,30.00,10.0,SE,10.4,16.1,N/A,,Clear,140,2013-10-12 07:35:00
3:55 AM,59.4,47.5,65,30.00,10.0,SE,10.4,-,N/A,,Clear,140,2013-10-12 07:55:00
4:15 AM,59.0,46.8,64,30.00,10.0,SSE,8.1,-,N/A,,Clear,150,2013-10-12 08:15:00
4:35 AM,58.6,46.6,64,30.00,10.0,SE,10.4,-,N/A,,Clear,140,2013-10-12 08:35:00
4:55 AM,58.6,46.8,65,30.00,10.0,SSE,10.4,-,N/A,,Clear,150,2013-10-12 08:55:00
5:15 AM,58.5,46.9,66,29.99,10.0,SE,11.5,-,N/A,,Clear,140,2013-10-12 09:15:00
5:35 AM,58.8,47.3,66,29.99,10.0,SE,9.2,-,N/A,,Clear,140,2013-10-12 09:35:00
5:56 AM,59.0,47.3,65,29.99,10.0,SE,12.7,18.4,N/A,,Clear,140,2013-10-12 09:56:00
6:16 AM,59.2,46.4,63,29.99,10.0,SE,10.4,17.3,N/A,,Clear,140,2013-10-12 10:16:00
6:36 AM,59.0,45.5,61,29.99,10.0,SSE,11.5,17.3,N/A,,Clear,150,2013-10-12 10:36:00
6:56 AM,58.8,44.6,59,29.99,10.0,SE,9.2,-,N/A,,Clear,140,2013-10-12 10:56:00
7:16 AM,58.5,44.2,59,29.99,10.0,SE,8.1,-,N/A,,Clear,140,2013-10-12 11:16:00
7:31 AM,58.1,44.2,60,29.99,10.0,SE,9.2,-,N/A,,Clear,140,2013-10-12 11:31:00
7:51 AM,58.1,44.2,60,29.99,10.0,ESE,8.1,-,N/A,,Clear,120,2013-10-12 11:51:00
8:11 AM,57.9,44.6,61,30.00,10.0,ESE,8.1,-,N/A,,Clear,120,2013-10-12 12:11:00
8:31 AM,58.3,44.6,60,30.00,10.0,ESE,9.2,-,N/A,,Mostly Cloudy,120,2013-10-12 12:31:00
8:51 AM,59.0,45.0,60,30.00,10.0,SE,6.9,-,N/A,,Scattered Clouds,140,2013-10-12 12:51:00
9:11 AM,60.1,45.5,59,30.00,10.0,SE,9.2,-,N/A,,Clear,140,2013-10-12 13:11:00
9:32 AM,61.5,45.9,56,30.00,10.0,SSE,9.2,-,N/A,,Scattered Clouds,150,2013-10-12 13:32:00
9:52 AM,62.8,46.8,56,30.00,10.0,SSE,10.4,-,N/A,,Scattered Clouds,150,2013-10-12 13:52:00
10:12 AM,64.0,47.8,56,30.00,10.0,SSE,12.7,-,N/A,,Clear,160,2013-10-12 14:12:00
10:32 AM,65.5,48.9,55,30.00,10.0,SSE,15.0,-,N/A,,Clear,150,2013-10-12 14:32:00
10:52 AM,66.7,50.0,55,29.99,10.0,SSE,13.8,19.6,N/A,,Clear,160,2013-10-12 14:52:00
11:12 AM,68.9,51.6,54,29.98,10.0,SSE,12.7,19.6,N/A,,Clear,160,2013-10-12 15:12:00
11:32 AM,69.3,52.3,55,29.98,10.0,SSE,13.8,20.7,N/A,,Clear,160,2013-10-12 15:32:00
11:52 AM,70.9,53.2,54,29.98,10.0,SSE,16.1,21.9,N/A,,Clear,160,2013-10-12 15:52:00
12:12 PM,72.0,53.6,52,29.98,10.0,SSE,11.5,-,N/A,,Clear,160,2013-10-12 16:12:00
12:33 PM,72.9,54.3,52,29.98,10.0,South,11.5,-,N/A,,Clear,170,2013-10-12 16:33:00
12:53 PM,73.4,54.7,52,29.96,10.0,SSE,11.5,21.9,N/A,,Clear,160,2013-10-12 16:53:00
1:13 PM,74.7,55.6,51,29.96,10.0,South,17.3,24.2,N/A,,Clear,170,2013-10-12 17:13:00
1:33 PM,75.4,56.3,51,29.95,10.0,South,11.5,21.9,N/A,,Scattered Clouds,190,2013-10-12 17:33:00
1:53 PM,74.1,55.8,53,29.94,10.0,South,13.8,18.4,N/A,,Clear,170,2013-10-12 17:53:00
2:13 PM,74.3,56.5,54,29.94,10.0,SSW,12.7,19.6,N/A,,Mostly Cloudy,210,2013-10-12 18:13:00
2:33 PM,74.5,57.2,55,29.94,10.0,SSW,10.4,19.6,N/A,,Mostly Cloudy,210,2013-10-12 18:33:00
2:53 PM,73.9,57.4,56,29.94,10.0,SSW,11.5,19.6,N/A,,Scattered Clouds,200,2013-10-12 18:53:00
3:14 PM,74.7,56.8,54,29.93,10.0,South,11.5,18.4,N/A,,Mostly Cloudy,190,2013-10-12 19:14:00
3:34 PM,74.7,56.1,52,29.92,10.0,South,13.8,24.2,N/A,,Scattered Clouds,180,2013-10-12 19:34:00
3:54 PM,74.3,56.7,54,29.93,10.0,SSW,10.4,16.1,N/A,,Mostly Cloudy,200,2013-10-12 19:54:00
4:14 PM,73.4,56.3,55,29.93,10.0,South,9.2,16.1,N/A,,Overcast,190,2013-10-12 20:14:00
4:34 PM,73.0,56.5,56,29.93,10.0,South,12.7,24.2,N/A,,Mostly Cloudy,190,2013-10-12 20:34:00
4:54 PM,68.4,58.1,70,29.95,10.0,SW,9.2,-,N/A,,Overcast,230,2013-10-12 20:54:00
5:14 PM,67.5,57.2,70,29.98,10.0,SSW,24.2,33.4,N/A,,Overcast,200,2013-10-12 21:14:00
5:34 PM,63.1,59.5,88,29.99,2.5,South,15.0,25.3,N/A,Rain,Heavy Rain,180,2013-10-12 21:34:00
5:54 PM,62.8,59.9,90,29.98,4.0,SSW,13.8,23.0,N/A,Rain,Heavy Rain,200,2013-10-12 21:54:00
6:14 PM,62.8,59.9,90,29.98,5.0,South,13.8,23.0,N/A,Rain,Light Rain,190,2013-10-12 22:14:00
6:35 PM,63.0,60.1,90,29.97,4.0,SSW,8.1,-,N/A,Rain,Rain,200,2013-10-12 22:35:00
6:55 PM,63.3,60.1,89,29.98,10.0,South,8.1,-,N/A,Rain,Light Rain,190,2013-10-12 22:55:00
7:15 PM,63.5,60.3,89,29.99,10.0,South,11.5,16.1,N/A,Rain,Light Rain,190,2013-10-12 23:15:00
7:35 PM,63.3,60.4,90,29.99,10.0,South,9.2,-,N/A,Rain,Light Rain,170,2013-10-12 23:35:00
7:55 PM,63.1,60.1,90,29.99,10.0,South,8.1,-,N/A,,Overcast,170,2013-10-12 23:55:00
8:15 PM,63.1,60.1,90,29.99,10.0,South,9.2,-,N/A,,Overcast,170,2013-10-13 00:15:00
8:35 PM,63.1,60.1,90,30.00,10.0,South,6.9,-,N/A,,Overcast,190,2013-10-13 00:35:00
8:55 PM,63.0,59.9,90,30.00,10.0,South,10.4,-,N/A,,Overcast,190,2013-10-13 00:55:00
9:16 PM,63.1,60.1,90,30.01,10.0,SW,5.8,-,N/A,,Overcast,230,2013-10-13 01:16:00
9:36 PM,63.1,59.9,89,30.02,10.0,SW,11.5,17.3,N/A,,Overcast,220,2013-10-13 01:36:00
9:56 PM,62.4,59.0,89,30.03,10.0,SW,9.2,-,N/A,,Mostly Cloudy,230,2013-10-13 01:56:00
10:16 PM,61.5,54.7,78,30.03,10.0,WSW,9.2,-,N/A,,Scattered Clouds,250,2013-10-13 02:16:00
10:36 PM,61.2,49.8,66,30.04,10.0,West,8.1,-,N/A,,Clear,280,2013-10-13 02:36:00
10:56 PM,60.4,48.4,64,30.05,10.0,West,10.4,-,N/A,,Clear,280,2013-10-13 02:56:00
11:16 PM,59.9,47.8,64,30.06,10.0,West,8.1,-,N/A,,Clear,280,2013-10-13 03:16:00
11:31 PM,59.5,48.2,66,30.06,10.0,West,10.4,18.4,N/A,,Clear,280,2013-10-13 03:31:00
11:51 PM,59.2,47.3,65,30.07,10.0,West,10.4,16.1,N/A,,Clear,280,2013-10-13 03:51:00